You are not logged in, Click here to log in
馬加丹索科爾國際機場GDX / UHMM 俄羅斯遠東城市馬加丹北部地區
ICAO: UHMM Country: 俄羅斯遠東城市馬加丹北部地區
Latitude: 59.911 Longitude: 150.72
Total Arrivals: 4 Total Departures: 4
Latest Arrival: 6RU631 (UHPP-UHMM)Jason. Li Latest Departure: NH879F (UHMM-RJCC)Jason. Li
Scenery:
METAR : UHMM 092130Z 09002MPS 350V110 9999 NSC M29/M31 Q1008 R10/82//50 NOSIG RMK QFE741

馬加丹索科爾國際機場GDX

You are accessing this site from IP address 35.170.81.210. Virtual Airline. CMS by phpVMS.Website designed by Zumeweb and edited by Theo Bearman.
There is 0 User(s) Online: | and 5 Guest(s) Online.
All information on this site is for fight simulation purposes only. This site is for flight logging for pilots of Virtual Airline&模擬飛行論壇 FlySim only.